sensor_id;sensor_type;location;lat;lon;timestamp;P1;durP1;ratioP1;P2;durP2;ratioP2
20637;SDS011;10478;49.004;8.470;2024-01-16T04:32:19;6.78;;;3.42;;
20637;SDS011;10478;49.004;8.470;2024-01-16T04:38:18;10.68;;;3.03;;
20637;SDS011;10478;49.004;8.470;2024-01-16T05:32:29;10.63;;;4.70;;
20637;SDS011;10478;49.004;8.470;2024-01-16T05:55:39;14.23;;;5.35;;
20637;SDS011;10478;49.004;8.470;2024-01-16T05:58:04;8.18;;;3.70;;
20637;SDS011;10478;49.004;8.470;2024-01-16T06:00:30;8.68;;;4.00;;
20637;SDS011;10478;49.004;8.470;2024-01-16T06:02:56;8.98;;;3.95;;
20637;SDS011;10478;49.004;8.470;2024-01-16T06:05:21;9.70;;;4.03;;
20637;SDS011;10478;49.004;8.470;2024-01-16T06:07:47;12.23;;;4.93;;
20637;SDS011;10478;49.004;8.470;2024-01-16T06:10:12;10.10;;;4.65;;
20637;SDS011;10478;49.004;8.470;2024-01-16T06:12:41;13.43;;;5.30;;
20637;SDS011;10478;49.004;8.470;2024-01-16T06:15:06;13.00;;;4.47;;
20637;SDS011;10478;49.004;8.470;2024-01-16T06:17:33;13.13;;;4.80;;
20637;SDS011;10478;49.004;8.470;2024-01-16T06:19:59;10.50;;;5.35;;
20637;SDS011;10478;49.004;8.470;2024-01-16T06:22:24;10.65;;;4.50;;
20637;SDS011;10478;49.004;8.470;2024-01-16T06:24:50;10.05;;;4.75;;
20637;SDS011;10478;49.004;8.470;2024-01-16T06:27:16;12.23;;;4.40;;
20637;SDS011;10478;49.004;8.470;2024-01-16T06:29:46;11.20;;;5.15;;
20637;SDS011;10478;49.004;8.470;2024-01-16T06:32:12;10.98;;;4.38;;
20637;SDS011;10478;49.004;8.470;2024-01-16T06:34:38;12.90;;;4.07;;
20637;SDS011;10478;49.004;8.470;2024-01-16T06:37:03;10.25;;;4.78;;
20637;SDS011;10478;49.004;8.470;2024-01-16T06:39:29;7.50;;;3.88;;
20637;SDS011;10478;49.004;8.470;2024-01-16T06:41:55;15.63;;;4.35;;
20637;SDS011;10478;49.004;8.470;2024-01-16T06:44:20;10.13;;;4.07;;
20637;SDS011;10478;49.004;8.470;2024-01-16T06:46:45;10.75;;;4.05;;
20637;SDS011;10478;49.004;8.470;2024-01-16T06:49:11;8.90;;;4.45;;
20637;SDS011;10478;49.004;8.470;2024-01-16T06:51:36;7.13;;;5.20;;
20637;SDS011;10478;49.004;8.470;2024-01-16T06:54:02;11.02;;;4.35;;
20637;SDS011;10478;49.004;8.470;2024-01-16T06:56:28;14.98;;;4.05;;
20637;SDS011;10478;49.004;8.470;2024-01-16T06:58:54;12.80;;;4.70;;
20637;SDS011;10478;49.004;8.470;2024-01-16T07:01:19;7.40;;;3.83;;
20637;SDS011;10478;49.004;8.470;2024-01-16T07:03:45;13.10;;;5.40;;
20637;SDS011;10478;49.004;8.470;2024-01-16T07:06:10;11.48;;;4.65;;
20637;SDS011;10478;49.004;8.470;2024-01-16T07:08:36;14.90;;;4.85;;
20637;SDS011;10478;49.004;8.470;2024-01-16T07:11:02;11.23;;;5.35;;
20637;SDS011;10478;49.004;8.470;2024-01-16T07:13:29;12.60;;;5.72;;
20637;SDS011;10478;49.004;8.470;2024-01-16T07:15:54;11.27;;;4.88;;
20637;SDS011;10478;49.004;8.470;2024-01-16T07:18:20;12.80;;;5.25;;
20637;SDS011;10478;49.004;8.470;2024-01-16T07:20:45;11.13;;;4.90;;
20637;SDS011;10478;49.004;8.470;2024-01-16T07:23:11;12.25;;;5.05;;
20637;SDS011;10478;49.004;8.470;2024-01-16T07:25:37;12.05;;;5.60;;
20637;SDS011;10478;49.004;8.470;2024-01-16T07:28:03;14.38;;;5.15;;
20637;SDS011;10478;49.004;8.470;2024-01-16T07:30:28;11.20;;;4.60;;
20637;SDS011;10478;49.004;8.470;2024-01-16T07:32:54;9.88;;;4.55;;
20637;SDS011;10478;49.004;8.470;2024-01-16T07:35:19;9.68;;;4.45;;
20637;SDS011;10478;49.004;8.470;2024-01-16T07:37:45;8.73;;;4.60;;
20637;SDS011;10478;49.004;8.470;2024-01-16T07:40:10;9.73;;;4.55;;
20637;SDS011;10478;49.004;8.470;2024-01-16T07:42:37;8.55;;;3.83;;
20637;SDS011;10478;49.004;8.470;2024-01-16T07:45:03;11.55;;;4.55;;
20637;SDS011;10478;49.004;8.470;2024-01-16T07:47:29;11.75;;;4.57;;
20637;SDS011;10478;49.004;8.470;2024-01-16T07:49:56;13.75;;;5.95;;
20637;SDS011;10478;49.004;8.470;2024-01-16T07:52:21;19.23;;;5.93;;
20637;SDS011;10478;49.004;8.470;2024-01-16T07:54:47;11.88;;;5.50;;
20637;SDS011;10478;49.004;8.470;2024-01-16T07:57:13;13.15;;;5.45;;
20637;SDS011;10478;49.004;8.470;2024-01-16T07:59:38;9.90;;;4.97;;
20637;SDS011;10478;49.004;8.470;2024-01-16T08:02:05;11.45;;;5.88;;
20637;SDS011;10478;49.004;8.470;2024-01-16T08:04:31;10.80;;;4.45;;
20637;SDS011;10478;49.004;8.470;2024-01-16T08:06:57;10.13;;;4.50;;
20637;SDS011;10478;49.004;8.470;2024-01-16T08:09:22;14.63;;;5.97;;
20637;SDS011;10478;49.004;8.470;2024-01-16T08:11:48;10.77;;;4.50;;
20637;SDS011;10478;49.004;8.470;2024-01-16T08:14:14;15.15;;;5.05;;
20637;SDS011;10478;49.004;8.470;2024-01-16T08:16:39;10.43;;;4.93;;
20637;SDS011;10478;49.004;8.470;2024-01-16T08:19:05;13.07;;;4.20;;
20637;SDS011;10478;49.004;8.470;2024-01-16T08:21:30;12.75;;;5.30;;
20637;SDS011;10478;49.004;8.470;2024-01-16T08:23:56;16.00;;;4.63;;
20637;SDS011;10478;49.004;8.470;2024-01-16T08:26:21;11.48;;;5.38;;
20637;SDS011;10478;49.004;8.470;2024-01-16T08:28:47;11.20;;;4.90;;
20637;SDS011;10478;49.004;8.470;2024-01-16T08:31:13;8.02;;;4.70;;
20637;SDS011;10478;49.004;8.470;2024-01-16T08:33:45;12.20;;;5.15;;
20637;SDS011;10478;49.004;8.470;2024-01-16T08:36:12;9.57;;;4.50;;
20637;SDS011;10478;49.004;8.470;2024-01-16T08:38:37;11.93;;;4.00;;
20637;SDS011;10478;49.004;8.470;2024-01-16T08:41:03;10.65;;;4.65;;
20637;SDS011;10478;49.004;8.470;2024-01-16T08:43:31;10.65;;;4.53;;
20637;SDS011;10478;49.004;8.470;2024-01-16T08:45:58;11.20;;;5.40;;
20637;SDS011;10478;49.004;8.470;2024-01-16T08:48:23;11.13;;;4.72;;
20637;SDS011;10478;49.004;8.470;2024-01-16T08:50:49;11.10;;;3.88;;
20637;SDS011;10478;49.004;8.470;2024-01-16T08:53:15;14.40;;;5.10;;
20637;SDS011;10478;49.004;8.470;2024-01-16T08:55:40;9.43;;;4.40;;
20637;SDS011;10478;49.004;8.470;2024-01-16T08:58:06;8.90;;;4.40;;
20637;SDS011;10478;49.004;8.470;2024-01-16T09:00:32;11.93;;;4.65;;
20637;SDS011;10478;49.004;8.470;2024-01-16T09:02:58;11.27;;;5.35;;
20637;SDS011;10478;49.004;8.470;2024-01-16T09:05:24;17.63;;;5.50;;
20637;SDS011;10478;49.004;8.470;2024-01-16T09:07:50;13.40;;;5.13;;
20637;SDS011;10478;49.004;8.470;2024-01-16T09:10:17;10.52;;;5.32;;
20637;SDS011;10478;49.004;8.470;2024-01-16T09:12:43;14.00;;;4.75;;
20637;SDS011;10478;49.004;8.470;2024-01-16T09:15:09;7.72;;;4.00;;
20637;SDS011;10478;49.004;8.470;2024-01-16T09:17:35;12.00;;;4.28;;
20637;SDS011;10478;49.004;8.470;2024-01-16T09:20:00;11.68;;;4.30;;
20637;SDS011;10478;49.004;8.470;2024-01-16T09:22:26;8.15;;;3.75;;
20637;SDS011;10478;49.004;8.470;2024-01-16T09:24:52;13.95;;;4.68;;
20637;SDS011;10478;49.004;8.470;2024-01-16T09:27:17;8.60;;;3.85;;
20637;SDS011;10478;49.004;8.470;2024-01-16T09:29:43;12.40;;;4.53;;
20637;SDS011;10478;49.004;8.470;2024-01-16T09:32:09;10.88;;;3.85;;
20637;SDS011;10478;49.004;8.470;2024-01-16T09:34:34;12.25;;;3.78;;
20637;SDS011;10478;49.004;8.470;2024-01-16T09:37:00;9.00;;;4.13;;
20637;SDS011;10478;49.004;8.470;2024-01-16T09:39:28;12.63;;;4.68;;
20637;SDS011;10478;49.004;8.470;2024-01-16T09:41:55;10.77;;;4.97;;
20637;SDS011;10478;49.004;8.470;2024-01-16T09:44:25;10.38;;;5.30;;
20637;SDS011;10478;49.004;8.470;2024-01-16T09:46:50;11.68;;;4.15;;
20637;SDS011;10478;49.004;8.470;2024-01-16T09:49:17;10.18;;;4.22;;
20637;SDS011;10478;49.004;8.470;2024-01-16T09:51:43;7.80;;;4.47;;
20637;SDS011;10478;49.004;8.470;2024-01-16T09:54:08;9.57;;;3.95;;
20637;SDS011;10478;49.004;8.470;2024-01-16T10:20:33;8.35;;;4.35;;
20637;SDS011;10478;49.004;8.470;2024-01-16T10:22:59;10.63;;;4.75;;
20637;SDS011;10478;49.004;8.470;2024-01-16T10:25:25;7.30;;;4.22;;
20637;SDS011;10478;49.004;8.470;2024-01-16T10:28:02;8.68;;;4.03;;
20637;SDS011;10478;49.004;8.470;2024-01-16T10:30:28;12.35;;;5.63;;
20637;SDS011;10478;49.004;8.470;2024-01-16T10:32:54;8.35;;;3.83;;
20637;SDS011;10478;49.004;8.470;2024-01-16T10:35:20;10.32;;;4.80;;
20637;SDS011;10478;49.004;8.470;2024-01-16T10:37:55;15.38;;;4.85;;
20637;SDS011;10478;49.004;8.470;2024-01-16T10:40:21;9.82;;;4.30;;
20637;SDS011;10478;49.004;8.470;2024-01-16T10:43:00;5.95;;;3.95;;
20637;SDS011;10478;49.004;8.470;2024-01-16T10:45:26;9.63;;;5.15;;
20637;SDS011;10478;49.004;8.470;2024-01-16T10:50:31;9.52;;;4.78;;
20637;SDS011;10478;49.004;8.470;2024-01-16T10:53:02;10.25;;;4.40;;
20637;SDS011;10478;49.004;8.470;2024-01-16T10:55:29;7.90;;;4.07;;
20637;SDS011;10478;49.004;8.470;2024-01-16T10:57:58;7.25;;;3.65;;
20637;SDS011;10478;49.004;8.470;2024-01-16T11:00:25;8.63;;;4.30;;
20637;SDS011;10478;49.004;8.470;2024-01-16T11:05:25;9.02;;;3.83;;
20637;SDS011;10478;49.004;8.470;2024-01-16T11:07:53;10.38;;;4.55;;
20637;SDS011;10478;49.004;8.470;2024-01-16T11:10:19;7.40;;;3.83;;
20637;SDS011;10478;49.004;8.470;2024-01-16T11:12:45;4.50;;;3.03;;
20637;SDS011;10478;49.004;8.470;2024-01-16T12:14:40;8.13;;;3.65;;
20637;SDS011;10478;49.004;8.470;2024-01-16T12:17:12;4.47;;;2.45;;
20637;SDS011;10478;49.004;8.470;2024-01-16T12:19:38;5.10;;;2.47;;
20637;SDS011;10478;49.004;8.470;2024-01-16T12:22:10;8.55;;;3.45;;
20637;SDS011;10478;49.004;8.470;2024-01-16T12:24:36;4.97;;;2.85;;
20637;SDS011;10478;49.004;8.470;2024-01-16T12:27:02;5.13;;;2.88;;
20637;SDS011;10478;49.004;8.470;2024-01-16T12:29:29;5.03;;;3.00;;
20637;SDS011;10478;49.004;8.470;2024-01-16T12:32:10;11.88;;;2.92;;
20637;SDS011;10478;49.004;8.470;2024-01-16T12:35:45;6.85;;;3.03;;
20637;SDS011;10478;49.004;8.470;2024-01-16T12:38:30;6.05;;;3.70;;
20637;SDS011;10478;49.004;8.470;2024-01-16T12:40:55;5.47;;;1.95;;
20637;SDS011;10478;49.004;8.470;2024-01-16T12:43:21;9.32;;;2.58;;
20637;SDS011;10478;49.004;8.470;2024-01-16T12:45:54;3.55;;;2.00;;
20637;SDS011;10478;49.004;8.470;2024-01-16T12:48:24;5.75;;;2.60;;
20637;SDS011;10478;49.004;8.470;2024-01-16T12:50:50;5.45;;;2.00;;
20637;SDS011;10478;49.004;8.470;2024-01-16T12:53:16;9.00;;;2.17;;
20637;SDS011;10478;49.004;8.470;2024-01-16T12:55:46;5.95;;;1.95;;
20637;SDS011;10478;49.004;8.470;2024-01-16T12:58:22;7.00;;;2.40;;
20637;SDS011;10478;49.004;8.470;2024-01-16T13:00:51;7.30;;;1.77;;
20637;SDS011;10478;49.004;8.470;2024-01-16T13:03:17;4.70;;;1.90;;
20637;SDS011;10478;49.004;8.470;2024-01-16T13:05:44;9.18;;;2.65;;
20637;SDS011;10478;49.004;8.470;2024-01-16T13:08:16;4.72;;;1.45;;
20637;SDS011;10478;49.004;8.470;2024-01-16T13:10:43;6.72;;;2.35;;
20637;SDS011;10478;49.004;8.470;2024-01-16T13:20:52;11.15;;;3.90;;
20637;SDS011;10478;49.004;8.470;2024-01-16T13:23:18;8.60;;;2.97;;
20637;SDS011;10478;49.004;8.470;2024-01-16T13:59:34;9.65;;;3.03;;
20637;SDS011;10478;49.004;8.470;2024-01-16T14:02:01;8.57;;;3.38;;
20637;SDS011;10478;49.004;8.470;2024-01-16T14:04:27;7.55;;;2.78;;
20637;SDS011;10478;49.004;8.470;2024-01-16T14:06:53;5.30;;;2.83;;
20637;SDS011;10478;49.004;8.470;2024-01-16T14:09:18;4.30;;;2.13;;
20637;SDS011;10478;49.004;8.470;2024-01-16T14:11:44;8.75;;;3.53;;
20637;SDS011;10478;49.004;8.470;2024-01-16T14:14:09;22.00;;;9.00;;
20637;SDS011;10478;49.004;8.470;2024-01-16T14:34:42;8.52;;;2.38;;
20637;SDS011;10478;49.004;8.470;2024-01-16T14:37:07;7.40;;;2.75;;
20637;SDS011;10478;49.004;8.470;2024-01-16T14:39:33;6.60;;;1.92;;
20637;SDS011;10478;49.004;8.470;2024-01-16T14:42:01;5.43;;;2.58;;
20637;SDS011;10478;49.004;8.470;2024-01-16T14:44:27;6.40;;;2.22;;
20637;SDS011;10478;49.004;8.470;2024-01-16T14:46:52;13.48;;;4.10;;
20637;SDS011;10478;49.004;8.470;2024-01-16T14:49:19;74.38;;;21.02;;
20637;SDS011;10478;49.004;8.470;2024-01-16T14:51:46;36.67;;;8.27;;
20637;SDS011;10478;49.004;8.470;2024-01-16T14:54:11;14.90;;;4.78;;
20637;SDS011;10478;49.004;8.470;2024-01-16T14:56:37;8.57;;;2.80;;
20637;SDS011;10478;49.004;8.470;2024-01-16T14:59:02;5.68;;;2.33;;
20637;SDS011;10478;49.004;8.470;2024-01-16T15:01:28;7.13;;;2.92;;
20637;SDS011;10478;49.004;8.470;2024-01-16T15:03:54;7.47;;;2.38;;
20637;SDS011;10478;49.004;8.470;2024-01-16T15:06:20;6.30;;;2.30;;
20637;SDS011;10478;49.004;8.470;2024-01-16T15:08:47;13.15;;;3.38;;
20637;SDS011;10478;49.004;8.470;2024-01-16T15:11:13;4.57;;;2.38;;
20637;SDS011;10478;49.004;8.470;2024-01-16T15:13:39;7.85;;;2.75;;
20637;SDS011;10478;49.004;8.470;2024-01-16T15:16:05;4.93;;;2.05;;
20637;SDS011;10478;49.004;8.470;2024-01-16T15:18:31;8.57;;;2.53;;
20637;SDS011;10478;49.004;8.470;2024-01-16T15:20:56;5.47;;;2.40;;
20637;SDS011;10478;49.004;8.470;2024-01-16T15:23:21;7.60;;;2.40;;
20637;SDS011;10478;49.004;8.470;2024-01-16T15:25:48;7.30;;;3.47;;
20637;SDS011;10478;49.004;8.470;2024-01-16T15:28:14;8.70;;;2.22;;
20637;SDS011;10478;49.004;8.470;2024-01-16T15:30:39;8.50;;;2.90;;
20637;SDS011;10478;49.004;8.470;2024-01-16T15:33:04;6.15;;;3.25;;
20637;SDS011;10478;49.004;8.470;2024-01-16T15:35:30;4.80;;;2.33;;
20637;SDS011;10478;49.004;8.470;2024-01-16T15:37:58;4.90;;;2.13;;
20637;SDS011;10478;49.004;8.470;2024-01-16T15:40:27;5.18;;;2.00;;
20637;SDS011;10478;49.004;8.470;2024-01-16T15:43:08;6.10;;;2.33;;
20637;SDS011;10478;49.004;8.470;2024-01-16T15:45:34;5.55;;;2.58;;
20637;SDS011;10478;49.004;8.470;2024-01-16T15:47:59;7.57;;;2.40;;
20637;SDS011;10478;49.004;8.470;2024-01-16T15:50:25;4.80;;;1.98;;
20637;SDS011;10478;49.004;8.470;2024-01-16T15:52:51;6.00;;;2.08;;
20637;SDS011;10478;49.004;8.470;2024-01-16T15:55:17;6.55;;;2.22;;
20637;SDS011;10478;49.004;8.470;2024-01-16T15:57:42;5.45;;;2.47;;
20637;SDS011;10478;49.004;8.470;2024-01-16T16:00:08;12.60;;;2.85;;
20637;SDS011;10478;49.004;8.470;2024-01-16T16:02:37;7.10;;;2.95;;
20637;SDS011;10478;49.004;8.470;2024-01-16T16:17:59;29.85;;;8.82;;
20637;SDS011;10478;49.004;8.470;2024-01-16T17:00:20;20.38;;;7.65;;
20637;SDS011;10478;49.004;8.470;2024-01-16T17:02:45;13.20;;;6.50;;
20637;SDS011;10478;49.004;8.470;2024-01-16T17:05:11;16.77;;;7.38;;
20637;SDS011;10478;49.004;8.470;2024-01-16T17:07:36;26.23;;;9.32;;
20637;SDS011;10478;49.004;8.470;2024-01-16T17:10:02;22.67;;;9.55;;
20637;SDS011;10478;49.004;8.470;2024-01-16T17:12:28;32.85;;;9.38;;
20637;SDS011;10478;49.004;8.470;2024-01-16T17:14:53;15.60;;;6.30;;
20637;SDS011;10478;49.004;8.470;2024-01-16T17:17:20;14.43;;;7.38;;
20637;SDS011;10478;49.004;8.470;2024-01-16T17:19:45;18.23;;;6.53;;
20637;SDS011;10478;49.004;8.470;2024-01-16T17:22:11;19.10;;;7.38;;
20637;SDS011;10478;49.004;8.470;2024-01-16T17:24:36;21.80;;;6.88;;
20637;SDS011;10478;49.004;8.470;2024-01-16T17:27:03;20.33;;;7.78;;
20637;SDS011;10478;49.004;8.470;2024-01-16T17:29:29;18.73;;;7.53;;
20637;SDS011;10478;49.004;8.470;2024-01-16T17:31:54;21.98;;;7.30;;
20637;SDS011;10478;49.004;8.470;2024-01-16T17:44:45;10.82;;;5.07;;
20637;SDS011;10478;49.004;8.470;2024-01-16T17:47:14;12.98;;;5.05;;
20637;SDS011;10478;49.004;8.470;2024-01-16T17:49:40;15.40;;;5.05;;
20637;SDS011;10478;49.004;8.470;2024-01-16T17:52:05;11.18;;;5.07;;
20637;SDS011;10478;49.004;8.470;2024-01-16T17:54:37;15.43;;;5.47;;
20637;SDS011;10478;49.004;8.470;2024-01-16T17:57:04;17.08;;;6.95;;
20637;SDS011;10478;49.004;8.470;2024-01-16T17:59:29;18.40;;;8.00;;
20637;SDS011;10478;49.004;8.470;2024-01-16T18:01:57;16.25;;;5.90;;
20637;SDS011;10478;49.004;8.470;2024-01-16T18:04:28;35.88;;;14.68;;
20637;SDS011;10478;49.004;8.470;2024-01-16T18:06:54;38.65;;;16.98;;
20637;SDS011;10478;49.004;8.470;2024-01-16T18:09:23;31.65;;;12.65;;
20637;SDS011;10478;49.004;8.470;2024-01-16T18:11:54;23.52;;;9.05;;
20637;SDS011;10478;49.004;8.470;2024-01-16T18:14:21;17.85;;;7.70;;
20637;SDS011;10478;49.004;8.470;2024-01-16T18:16:47;17.65;;;8.13;;
20637;SDS011;10478;49.004;8.470;2024-01-16T18:19:15;19.48;;;10.05;;
20637;SDS011;10478;49.004;8.470;2024-01-16T18:21:43;20.50;;;8.43;;
20637;SDS011;10478;49.004;8.470;2024-01-16T18:24:08;20.73;;;8.18;;
20637;SDS011;10478;49.004;8.470;2024-01-16T18:26:36;21.42;;;7.88;;
20637;SDS011;10478;49.004;8.470;2024-01-16T18:36:51;23.42;;;9.88;;
20637;SDS011;10478;49.004;8.470;2024-01-16T18:39:18;19.15;;;8.68;;
20637;SDS011;10478;49.004;8.470;2024-01-16T18:46:55;15.02;;;7.68;;
20637;SDS011;10478;49.004;8.470;2024-01-16T18:57:31;87.25;;;34.38;;
20637;SDS011;10478;49.004;8.470;2024-01-16T19:00:57;42.65;;;18.92;;
20637;SDS011;10478;49.004;8.470;2024-01-16T19:03:27;23.10;;;11.55;;
20637;SDS011;10478;49.004;8.470;2024-01-16T19:06:03;24.67;;;10.07;;
20637;SDS011;10478;49.004;8.470;2024-01-16T19:08:38;22.73;;;10.05;;
20637;SDS011;10478;49.004;8.470;2024-01-16T19:11:07;18.17;;;9.00;;
20637;SDS011;10478;49.004;8.470;2024-01-16T19:13:34;21.77;;;8.93;;
20637;SDS011;10478;49.004;8.470;2024-01-16T19:15:59;24.02;;;9.55;;
20637;SDS011;10478;49.004;8.470;2024-01-16T19:18:25;20.20;;;9.18;;
20637;SDS011;10478;49.004;8.470;2024-01-16T19:20:51;24.80;;;10.85;;
20637;SDS011;10478;49.004;8.470;2024-01-16T19:23:17;18.23;;;8.93;;
20637;SDS011;10478;49.004;8.470;2024-01-16T19:25:42;21.15;;;8.10;;
20637;SDS011;10478;49.004;8.470;2024-01-16T19:28:08;19.33;;;8.23;;
20637;SDS011;10478;49.004;8.470;2024-01-16T19:30:33;16.98;;;8.38;;
20637;SDS011;10478;49.004;8.470;2024-01-16T19:32:58;18.75;;;8.27;;
20637;SDS011;10478;49.004;8.470;2024-01-16T19:35:24;19.33;;;8.38;;
20637;SDS011;10478;49.004;8.470;2024-01-16T19:37:49;19.58;;;9.20;;
20637;SDS011;10478;49.004;8.470;2024-01-16T19:40:14;14.85;;;7.32;;
20637;SDS011;10478;49.004;8.470;2024-01-16T19:42:41;22.52;;;8.43;;
20637;SDS011;10478;49.004;8.470;2024-01-16T19:45:08;18.02;;;9.10;;
20637;SDS011;10478;49.004;8.470;2024-01-16T19:47:34;19.33;;;9.63;;
20637;SDS011;10478;49.004;8.470;2024-01-16T19:50:00;26.42;;;11.38;;
20637;SDS011;10478;49.004;8.470;2024-01-16T19:52:30;39.55;;;17.55;;
20637;SDS011;10478;49.004;8.470;2024-01-16T19:54:56;21.58;;;10.45;;
20637;SDS011;10478;49.004;8.470;2024-01-16T19:57:25;18.80;;;9.82;;
20637;SDS011;10478;49.004;8.470;2024-01-16T19:59:50;34.50;;;12.70;;
20637;SDS011;10478;49.004;8.470;2024-01-16T20:02:16;21.23;;;9.73;;
20637;SDS011;10478;49.004;8.470;2024-01-16T20:04:41;21.73;;;9.98;;
20637;SDS011;10478;49.004;8.470;2024-01-16T20:07:07;23.67;;;9.70;;
20637;SDS011;10478;49.004;8.470;2024-01-16T20:09:32;27.80;;;10.73;;
20637;SDS011;10478;49.004;8.470;2024-01-16T20:11:58;23.77;;;9.85;;
20637;SDS011;10478;49.004;8.470;2024-01-16T20:14:26;24.13;;;11.80;;
20637;SDS011;10478;49.004;8.470;2024-01-16T20:16:51;24.05;;;10.55;;
20637;SDS011;10478;49.004;8.470;2024-01-16T20:19:17;29.83;;;15.63;;
20637;SDS011;10478;49.004;8.470;2024-01-16T20:21:43;22.08;;;9.52;;
20637;SDS011;10478;49.004;8.470;2024-01-16T20:24:10;15.65;;;7.75;;
20637;SDS011;10478;49.004;8.470;2024-01-16T20:26:36;16.52;;;6.97;;
20637;SDS011;10478;49.004;8.470;2024-01-16T20:29:01;24.70;;;10.50;;
20637;SDS011;10478;49.004;8.470;2024-01-16T20:31:27;24.42;;;10.95;;
20637;SDS011;10478;49.004;8.470;2024-01-16T20:33:52;26.77;;;11.38;;
20637;SDS011;10478;49.004;8.470;2024-01-16T20:36:18;25.98;;;12.07;;
20637;SDS011;10478;49.004;8.470;2024-01-16T20:38:44;20.33;;;7.57;;
20637;SDS011;10478;49.004;8.470;2024-01-16T20:41:10;19.42;;;8.35;;
20637;SDS011;10478;49.004;8.470;2024-01-16T20:43:36;20.30;;;8.15;;
20637;SDS011;10478;49.004;8.470;2024-01-16T20:46:02;17.55;;;8.30;;
20637;SDS011;10478;49.004;8.470;2024-01-16T20:48:28;18.35;;;7.40;;
20637;SDS011;10478;49.004;8.470;2024-01-16T20:50:55;14.23;;;6.75;;
20637;SDS011;10478;49.004;8.470;2024-01-16T20:53:21;18.33;;;7.05;;
20637;SDS011;10478;49.004;8.470;2024-01-16T20:55:50;17.33;;;7.90;;
20637;SDS011;10478;49.004;8.470;2024-01-16T20:58:16;14.68;;;7.50;;
20637;SDS011;10478;49.004;8.470;2024-01-16T21:00:41;18.75;;;8.45;;
20637;SDS011;10478;49.004;8.470;2024-01-16T21:08:28;17.50;;;8.27;;
20637;SDS011;10478;49.004;8.470;2024-01-16T21:26:45;28.20;;;9.82;;
20637;SDS011;10478;49.004;8.470;2024-01-16T21:29:11;15.93;;;7.18;;
20637;SDS011;10478;49.004;8.470;2024-01-16T21:31:43;19.55;;;7.47;;
20637;SDS011;10478;49.004;8.470;2024-01-16T21:34:10;14.02;;;6.05;;
20637;SDS011;10478;49.004;8.470;2024-01-16T21:36:36;11.10;;;5.57;;
20637;SDS011;10478;49.004;8.470;2024-01-16T21:39:02;10.75;;;4.85;;
20637;SDS011;10478;49.004;8.470;2024-01-16T21:41:27;10.52;;;5.63;;
20637;SDS011;10478;49.004;8.470;2024-01-16T21:43:53;11.93;;;6.72;;
20637;SDS011;10478;49.004;8.470;2024-01-16T21:46:18;14.95;;;6.38;;
20637;SDS011;10478;49.004;8.470;2024-01-16T21:48:43;14.32;;;7.07;;
20637;SDS011;10478;49.004;8.470;2024-01-16T21:51:09;17.95;;;9.13;;
20637;SDS011;10478;49.004;8.470;2024-01-16T21:53:35;24.15;;;10.43;;
20637;SDS011;10478;49.004;8.470;2024-01-16T21:56:01;12.93;;;7.85;;
20637;SDS011;10478;49.004;8.470;2024-01-16T21:58:27;14.68;;;7.53;;
20637;SDS011;10478;49.004;8.470;2024-01-16T22:00:53;16.38;;;8.32;;
20637;SDS011;10478;49.004;8.470;2024-01-16T22:03:18;27.60;;;11.73;;
20637;SDS011;10478;49.004;8.470;2024-01-16T22:05:44;27.27;;;10.63;;
20637;SDS011;10478;49.004;8.470;2024-01-16T22:08:09;23.52;;;10.23;;
20637;SDS011;10478;49.004;8.470;2024-01-16T22:10:35;21.98;;;9.40;;
20637;SDS011;10478;49.004;8.470;2024-01-16T22:13:01;18.17;;;8.98;;
20637;SDS011;10478;49.004;8.470;2024-01-16T22:15:27;29.85;;;12.07;;
20637;SDS011;10478;49.004;8.470;2024-01-16T22:17:52;25.02;;;11.25;;
20637;SDS011;10478;49.004;8.470;2024-01-16T22:20:20;25.85;;;9.23;;
20637;SDS011;10478;49.004;8.470;2024-01-16T22:22:45;18.65;;;8.75;;
20637;SDS011;10478;49.004;8.470;2024-01-16T22:25:11;15.43;;;8.15;;
20637;SDS011;10478;49.004;8.470;2024-01-16T22:27:37;20.33;;;9.77;;
20637;SDS011;10478;49.004;8.470;2024-01-16T22:30:03;19.73;;;9.40;;
20637;SDS011;10478;49.004;8.470;2024-01-16T22:32:29;22.13;;;8.20;;
20637;SDS011;10478;49.004;8.470;2024-01-16T22:34:54;23.35;;;11.20;;
20637;SDS011;10478;49.004;8.470;2024-01-16T22:37:20;25.45;;;10.75;;
20637;SDS011;10478;49.004;8.470;2024-01-16T22:39:50;23.60;;;9.23;;
20637;SDS011;10478;49.004;8.470;2024-01-16T22:42:16;16.90;;;9.43;;
20637;SDS011;10478;49.004;8.470;2024-01-16T22:44:43;27.30;;;10.13;;
20637;SDS011;10478;49.004;8.470;2024-01-16T22:47:09;18.73;;;9.70;;
20637;SDS011;10478;49.004;8.470;2024-01-16T22:49:35;25.30;;;10.48;;
20637;SDS011;10478;49.004;8.470;2024-01-16T22:52:01;18.13;;;9.25;;
20637;SDS011;10478;49.004;8.470;2024-01-16T22:54:26;23.10;;;10.27;;
20637;SDS011;10478;49.004;8.470;2024-01-16T22:56:52;26.70;;;9.73;;
20637;SDS011;10478;49.004;8.470;2024-01-16T22:59:18;24.23;;;9.95;;
20637;SDS011;10478;49.004;8.470;2024-01-16T23:01:47;21.77;;;9.85;;
20637;SDS011;10478;49.004;8.470;2024-01-16T23:04:12;18.88;;;8.07;;
20637;SDS011;10478;49.004;8.470;2024-01-16T23:06:38;14.13;;;6.95;;
20637;SDS011;10478;49.004;8.470;2024-01-16T23:09:03;14.48;;;6.40;;
20637;SDS011;10478;49.004;8.470;2024-01-16T23:11:32;18.45;;;6.70;;
20637;SDS011;10478;49.004;8.470;2024-01-16T23:13:58;19.15;;;6.53;;
20637;SDS011;10478;49.004;8.470;2024-01-16T23:16:25;16.40;;;7.10;;
20637;SDS011;10478;49.004;8.470;2024-01-16T23:18:52;15.15;;;6.88;;
20637;SDS011;10478;49.004;8.470;2024-01-16T23:21:18;15.57;;;8.02;;
20637;SDS011;10478;49.004;8.470;2024-01-16T23:23:44;18.58;;;7.68;;
20637;SDS011;10478;49.004;8.470;2024-01-16T23:26:10;19.75;;;8.38;;
20637;SDS011;10478;49.004;8.470;2024-01-16T23:28:36;18.30;;;8.00;;
20637;SDS011;10478;49.004;8.470;2024-01-16T23:31:02;13.27;;;7.63;;
20637;SDS011;10478;49.004;8.470;2024-01-16T23:33:27;20.77;;;9.00;;
20637;SDS011;10478;49.004;8.470;2024-01-16T23:35:53;18.55;;;7.80;;
20637;SDS011;10478;49.004;8.470;2024-01-16T23:38:19;25.75;;;10.15;;
20637;SDS011;10478;49.004;8.470;2024-01-16T23:40:44;19.95;;;8.00;;
20637;SDS011;10478;49.004;8.470;2024-01-16T23:43:10;17.77;;;8.00;;
20637;SDS011;10478;49.004;8.470;2024-01-16T23:45:36;19.15;;;9.20;;
20637;SDS011;10478;49.004;8.470;2024-01-16T23:48:02;21.08;;;8.98;;
20637;SDS011;10478;49.004;8.470;2024-01-16T23:50:29;20.58;;;8.02;;
20637;SDS011;10478;49.004;8.470;2024-01-16T23:52:54;17.73;;;8.30;;
20637;SDS011;10478;49.004;8.470;2024-01-16T23:55:20;26.35;;;8.65;;
20637;SDS011;10478;49.004;8.470;2024-01-16T23:57:46;13.88;;;7.20;;
